Time;durP1;ratioP1;P1;durP2;ratioP2;P2;SDS_P1;SDS_P2;PMS_P1;PMS_P2;Temp;Humidity;BMP_temperature;BMP_pressure;BME280_temperature;BME280_humidity;BME280_pressure;Samples;Min_cycle;Max_cycle;Signal;HPM_P1;HPM_P2
2021/03/20 00:06:07;;;;;;;8.50;3.65;;;;;;;-5.33;61.82;100015.34;510429;1100;114677;-66
2021/03/20 00:16:18;;;;;;;8.20;4.43;;;;;;;-5.47;62.75;100023.77;510585;1102;114735;-65
2021/03/20 00:26:23;;;;;;;6.97;3.77;;;;;;;-5.70;63.88;100015.88;510744;1102;115541;-62
2021/03/20 00:36:26;;;;;;;9.90;5.30;;;;;;;-5.88;64.83;100022.55;510520;1102;114663;-61
2021/03/20 00:46:38;;;;;;;16.50;5.30;;;;;;;-5.98;64.84;100023.30;510433;1101;115201;-61
2021/03/20 00:56:42;;;;;;;10.20;4.93;;;;;;;-6.08;65.56;100024.91;510686;1102;114930;-62
2021/03/20 01:06:46;;;;;;;10.10;5.20;;;;;;;-6.18;66.37;100026.52;510866;1102;115636;-62
2021/03/20 01:17:01;;;;;;;6.05;3.35;;;;;;;-6.25;66.95;100028.14;510738;1100;115551;-62
2021/03/20 01:27:06;;;;;;;9.10;3.73;;;;;;;-6.39;67.71;100027.13;510819;1102;114260;-62
2021/03/20 01:37:09;;;;;;;8.37;4.63;;;;;;;-6.46;68.62;100036.42;510998;1101;114860;-63
2021/03/20 01:47:24;;;;;;;8.48;3.90;;;;;;;-6.56;68.88;100044.80;510920;1101;114227;-63
2021/03/20 01:57:30;;;;;;;8.70;4.20;;;;;;;-6.67;69.51;100050.63;510864;1100;114729;-63
2021/03/20 02:07:33;;;;;;;;;;;;;;;-6.77;70.13;100051.33;510768;1101;114188;-62
2021/03/20 02:17:53;;;;;;;11.50;5.05;;;;;;;-6.82;70.53;100070.81;511095;1102;101862;-63
2021/03/20 02:28:20;;;;;;;7.30;5.07;;;;;;;-6.88;71.07;100076.69;510914;1102;114450;-63
2021/03/20 02:38:33;;;;;;;10.57;4.70;;;;;;;-6.96;71.37;100079.13;510869;1102;114269;-63
2021/03/20 02:48:43;;;;;;;8.77;5.27;;;;;;;-7.00;71.92;100082.48;510953;1102;114479;-63
2021/03/20 02:58:51;;;;;;;6.90;4.53;;;;;;;-7.10;72.33;100091.70;510855;1102;114902;-62
2021/03/20 03:08:59;;;;;;;6.20;4.17;;;;;;;-7.13;72.67;100085.69;510834;1102;114546;-64
2021/03/20 03:19:08;;;;;;;10.53;4.27;;;;;;;-7.22;73.29;100104.23;510821;1102;115128;-62
2021/03/20 03:29:14;;;;;;;6.40;4.30;;;;;;;-7.30;73.15;100103.27;510817;1102;115919;-63
2021/03/20 03:39:24;;;;;;;12.93;4.53;;;;;;;-7.38;74.02;100110.80;510797;1100;170181;-63
2021/03/20 03:49:27;;;;;;;9.00;4.95;;;;;;;-7.39;74.07;100125.23;511003;1100;114474;-63
2021/03/20 03:59:42;;;;;;;8.40;3.97;;;;;;;-7.43;74.57;100131.13;511029;1100;114206;-62
2021/03/20 04:09:55;;;;;;;8.27;4.57;;;;;;;-7.47;74.89;100137.86;510850;1100;114216;-63
2021/03/20 04:20:12;;;;;;;8.70;4.83;;;;;;;-7.46;75.12;100146.36;510945;1100;114231;-62
2021/03/20 04:30:18;;;;;;;9.47;5.07;;;;;;;-7.54;75.06;100145.37;510860;1102;114373;-61
2021/03/20 04:40:30;;;;;;;8.07;4.77;;;;;;;-7.55;75.93;100156.41;510973;1100;114231;-62
2021/03/20 04:50:36;;;;;;;10.73;5.17;;;;;;;-7.53;75.35;100160.69;510772;1102;114270;-62
2021/03/20 05:00:45;;;;;;;9.27;4.93;;;;;;;-7.44;75.73;100159.16;510845;1100;114809;-62
2021/03/20 05:10:54;;;;;;;7.90;4.73;;;;;;;-7.22;76.02;100166.37;510849;1102;114192;-62
2021/03/20 05:20:58;;;;;;;6.50;4.23;;;;;;;-6.87;75.62;100167.79;510968;1102;114897;-64
2021/03/20 05:31:02;;;;;;;9.47;5.57;;;;;;;-6.54;76.02;100186.20;511217;1102;115097;-64
2021/03/20 05:41:17;;;;;;;9.35;5.53;;;;;;;-5.45;75.43;100192.70;511057;1102;115628;-62
2021/03/20 05:51:35;;;;;;;11.00;5.40;;;;;;;0.05;73.31;100194.48;511153;1102;114215;-63
2021/03/20 06:02:01;;;;;;;11.33;5.27;;;;;;;6.96;63.78;100178.23;510832;1102;115262;-63
2021/03/20 06:12:23;;;;;;;16.50;8.03;;;;;;;10.84;56.38;100176.63;510417;1102;114301;-63
2021/03/20 06:23:12;;;;;;;10.47;6.40;;;;;;;13.06;50.72;100175.72;510782;1100;114607;-62
2021/03/20 06:33:25;;;;;;;9.33;6.70;;;;;;;15.10;47.34;100175.83;510886;1102;114589;-62
2021/03/20 06:43:36;;;;;;;10.67;6.50;;;;;;;16.42;42.82;100180.92;510900;1100;114642;-63
2021/03/20 06:53:44;;;;;;;9.43;7.50;;;;;;;18.01;40.25;100185.62;510355;1100;114590;-60
2021/03/20 07:04:29;;;;;;;11.23;7.27;;;;;;;18.09;36.73;100192.95;510901;1102;115165;-62
2021/03/20 07:14:40;;;;;;;8.57;7.67;;;;;;;17.91;35.75;100182.89;510685;1102;114840;-61
2021/03/20 07:24:45;;;;;;;9.87;7.40;;;;;;;19.53;34.93;100203.31;510526;1102;114390;-61
2021/03/20 07:34:49;;;;;;;10.20;7.30;;;;;;;18.42;33.67;100208.75;510754;1102;114599;-62
2021/03/20 07:44:55;;;;;;;7.43;6.27;;;;;;;17.25;32.60;100223.78;510779;1100;114910;-62
2021/03/20 07:55:16;;;;;;;11.25;7.60;;;;;;;19.35;31.06;100228.98;511343;1102;114320;-62
2021/03/20 08:05:33;;;;;;;7.20;6.17;;;;;;;22.59;29.74;100235.97;510851;1102;114496;-62
2021/03/20 08:15:39;;;;;;;6.20;5.10;;;;;;;21.68;29.09;100241.63;510897;1100;114572;-62
2021/03/20 08:25:54;;;;;;;8.90;6.17;;;;;;;23.07;26.16;100245.14;510803;1100;114313;-63
2021/03/20 08:36:07;;;;;;;4.55;4.05;;;;;;;23.65;25.43;100250.58;510915;1101;114321;-61
2021/03/20 08:46:27;;;;;;;7.60;5.80;;;;;;;22.48;24.20;100245.97;510679;1102;115047;-62
2021/03/20 08:56:48;;;;;;;4.50;3.93;;;;;;;21.36;24.39;100253.67;511170;1100;114303;-61
2021/03/20 09:06:56;;;;;;;6.33;4.67;;;;;;;13.58;24.22;100269.89;510789;1102;114312;-62
2021/03/20 09:17:01;;;;;;;;;;;;;;;7.58;27.11;100277.64;510982;1101;115728;-62
2021/03/20 09:27:06;;;;;;;5.60;2.60;;;;;;;5.18;29.27;100299.02;510272;1102;100448;-66
2021/03/20 09:37:48;;;;;;;4.40;2.30;;;;;;;4.54;29.97;100297.40;513300;1101;114537;-67
2021/03/20 09:47:53;;;;;;;1.90;1.67;;;;;;;4.31;29.04;100306.68;511186;1102;114311;-65
2021/03/20 09:57:58;;;;;;;5.23;3.03;;;;;;;3.94;31.05;100307.63;510972;1101;114565;-68
2021/03/20 10:08:07;;;;;;;4.43;2.43;;;;;;;2.18;32.65;100329.47;511182;1101;114318;-69
2021/03/20 10:18:27;;;;;;;5.07;3.13;;;;;;;1.56;34.08;100327.89;510682;1101;114000;-69
2021/03/20 10:28:39;;;;;;;4.53;3.13;;;;;;;1.00;35.70;100335.54;510972;1100;113960;-69
2021/03/20 10:38:43;;;;;;;3.83;3.03;;;;;;;0.86;35.65;100336.57;510901;1102;114200;-65
2021/03/20 10:48:47;;;;;;;5.80;2.93;;;;;;;0.94;35.00;100341.64;511047;1102;115372;-68
2021/03/20 10:58:50;;;;;;;5.20;2.50;;;;;;;1.38;33.98;100324.68;510937;1102;114170;-68
2021/03/20 11:09:08;;;;;;;2.73;1.90;;;;;;;1.93;34.29;100319.53;511000;1101;114061;-67
2021/03/20 11:19:25;;;;;;;4.43;3.53;;;;;;;1.93;34.09;100323.84;510968;1102;113933;-65
2021/03/20 11:29:29;;;;;;;2.70;2.07;;;;;;;1.42;34.22;100316.86;511176;1102;114474;-62
2021/03/20 11:39:33;;;;;;;4.75;2.20;;;;;;;1.31;35.26;100307.52;510738;1101;113852;-62
2021/03/20 11:49:46;;;;;;;4.57;2.73;;;;;;;1.66;36.21;100302.70;510882;1102;114431;-65
2021/03/20 11:59:50;;;;;;;5.33;2.50;;;;;;;1.52;36.02;100296.02;510936;1100;114153;-65
2021/03/20 12:09:54;;;;;;;6.50;3.80;;;;;;;1.61;36.66;100286.38;510852;1102;113919;-67
2021/03/20 12:20:03;;;;;;;4.13;2.40;;;;;;;1.64;35.60;100279.42;511203;1102;176271;-67
2021/03/20 12:30:21;;;;;;;3.20;1.90;;;;;;;1.11;36.10;100274.17;511087;1100;114045;-64
2021/03/20 12:40:24;;;;;;;2.00;1.30;;;;;;;0.97;35.34;100274.36;510979;1102;113917;-67
2021/03/20 12:50:28;;;;;;;4.67;2.47;;;;;;;1.15;35.55;100274.99;510524;1100;114623;-67
2021/03/20 13:00:32;;;;;;;3.30;2.20;;;;;;;0.90;37.06;100283.93;510448;1101;113938;-61
2021/03/20 13:10:36;;;;;;;3.27;1.83;;;;;;;0.88;37.66;100282.27;511209;1100;113898;-68
2021/03/20 13:20:40;;;;;;;8.30;3.50;;;;;;;0.57;39.00;100277.45;511061;1100;114542;-70
2021/03/20 13:30:46;;;;;;;2.47;1.60;;;;;;;0.19;40.36;100274.41;510979;1099;114087;-67
2021/03/20 13:40:49;;;;;;;6.90;2.53;;;;;;;-0.07;39.74;100252.30;510739;1100;113985;-67
2021/03/20 13:50:53;;;;;;;4.97;2.20;;;;;;;0.37;40.29;100237.19;511060;1102;114239;-67
2021/03/20 14:00:58;;;;;;;4.90;2.70;;;;;;;0.52;39.19;100234.45;501938;1100;10001140;-71
2021/03/20 14:11:05;;;;;;;5.60;3.00;;;;;;;0.37;40.29;100243.23;510721;1101;115219;-67
2021/03/20 14:21:11;;;;;;;4.57;2.60;;;;;;;0.28;40.97;100243.33;510527;1101;113929;-67
2021/03/20 14:31:14;;;;;;;4.73;3.30;;;;;;;0.39;40.61;100222.52;510330;1101;114233;-66
2021/03/20 14:41:18;;;;;;;6.43;2.40;;;;;;;0.24;40.40;100211.50;510372;1101;113940;-63
2021/03/20 14:51:21;;;;;;;3.37;2.23;;;;;;;-0.11;39.51;100207.58;510533;1100;115405;-66
2021/03/20 15:01:25;;;;;;;3.57;2.70;;;;;;;-0.41;41.42;100211.30;510954;1102;114111;-67
2021/03/20 15:11:28;;;;;;;2.60;2.40;;;;;;;-0.50;41.01;100187.28;511248;1102;114308;-69
2021/03/20 15:21:31;;;;;;;4.33;2.47;;;;;;;-0.57;41.22;100183.06;511257;1102;114591;-70
2021/03/20 15:31:38;;;;;;;5.10;2.67;;;;;;;-0.51;40.84;100183.00;510506;1102;114709;-65
2021/03/20 15:41:44;;;;;;;5.53;2.47;;;;;;;-0.63;41.81;100177.95;510412;1102;115330;-65
2021/03/20 15:51:48;;;;;;;6.12;3.80;;;;;;;-0.86;43.19;100178.98;510653;1100;115159;-66
2021/03/20 16:01:51;;;;;;;5.30;3.00;;;;;;;-1.11;44.17;100168.85;510559;1102;114403;-65
2021/03/20 16:11:54;;;;;;;7.83;3.43;;;;;;;-1.34;45.01;100163.83;510615;1100;115445;-68
2021/03/20 16:21:58;;;;;;;3.63;3.20;;;;;;;-1.50;45.41;100169.08;510636;1100;115198;-67
2021/03/20 16:32:03;;;;;;;6.93;4.47;;;;;;;-1.88;45.87;100157.23;510745;1100;114708;-69
2021/03/20 16:42:10;;;;;;;10.37;4.37;;;;;;;-1.93;46.27;100156.38;510580;1100;114563;-66
2021/03/20 16:52:19;;;;;;;5.85;3.15;;;;;;;-2.43;47.24;100141.08;511218;1102;114252;-64
2021/03/20 17:02:23;;;;;;;10.70;5.03;;;;;;;-2.90;47.99;100147.96;510184;1101;114337;-63
2021/03/20 17:12:27;;;;;;;6.73;4.83;;;;;;;-3.21;49.85;100146.23;510567;1102;114314;-61
2021/03/20 17:22:30;;;;;;;9.70;3.87;;;;;;;-3.37;49.52;100135.06;510858;1101;115211;-66
2021/03/20 17:32:34;;;;;;;19.60;9.57;;;;;;;-3.42;50.83;100122.22;510341;1101;115581;-71
2021/03/20 17:42:37;;;;;;;19.50;10.20;;;;;;;-3.70;51.22;100119.59;510753;1102;114815;-66
2021/03/20 17:52:40;;;;;;;26.13;14.37;;;;;;;-4.03;52.56;100122.91;510528;1102;114912;-61
2021/03/20 18:02:43;;;;;;;33.75;16.95;;;;;;;-4.25;54.03;100115.11;510581;1100;115613;-61
2021/03/20 18:12:49;;;;;;;36.95;18.98;;;;;;;-4.36;54.97;100100.52;511382;1101;114501;-68
2021/03/20 18:22:52;;;;;;;35.10;19.60;;;;;;;-4.45;55.39;100102.16;510482;1101;114516;-69
2021/03/20 18:32:56;;;;;;;55.63;30.63;;;;;;;-4.43;54.65;100090.23;510600;1100;115932;-67
2021/03/20 18:42:59;;;;;;;35.03;20.77;;;;;;;-4.34;55.18;100089.41;510769;1102;114517;-68
2021/03/20 18:53:03;;;;;;;47.80;25.53;;;;;;;-4.28;54.59;100067.22;510408;1100;116106;-69
2021/03/20 19:03:08;;;;;;;33.50;17.95;;;;;;;-4.18;54.83;100062.14;510395;1100;116029;-69
2021/03/20 19:13:12;;;;;;;36.63;21.53;;;;;;;-4.23;55.72;100051.86;510811;1102;115385;-76
2021/03/20 19:23:15;;;;;;;45.70;26.33;;;;;;;-4.25;54.85;100046.70;510286;1101;114536;-75
2021/03/20 19:33:19;;;;;;;32.25;17.90;;;;;;;-4.34;55.76;100043.27;510565;1100;114785;-76
2021/03/20 19:43:23;;;;;;;30.90;16.63;;;;;;;-4.45;55.61;100053.45;510691;1100;115208;-66
2021/03/20 19:53:29;;;;;;;51.60;24.70;;;;;;;-4.57;56.59;100026.91;510494;1102;115259;-64
2021/03/20 20:03:32;;;;;;;27.60;16.25;;;;;;;-4.56;56.19;100031.21;510756;1100;114417;-64
2021/03/20 20:13:36;;;;;;;35.83;17.53;;;;;;;-4.57;56.91;100014.09;510712;1102;114952;-64
2021/03/20 20:23:39;;;;;;;35.70;15.83;;;;;;;-4.72;57.17;100016.59;510676;1102;114911;-64
2021/03/20 20:33:42;;;;;;;33.57;16.63;;;;;;;-4.74;57.93;100008.88;510715;1102;115248;-63
2021/03/20 20:43:49;;;;;;;46.00;20.90;;;;;;;-4.80;59.12;99990.93;510414;1101;115545;-63
2021/03/20 20:53:52;;;;;;;28.10;14.60;;;;;;;-4.93;58.82;99992.55;510630;1102;115067;-64
2021/03/20 21:03:56;;;;;;;32.67;16.50;;;;;;;-4.94;59.27;99984.03;510486;1101;114907;-65
2021/03/20 21:13:59;;;;;;;23.90;12.97;;;;;;;-4.91;59.86;99972.92;510758;1102;115308;-63
2021/03/20 21:24:03;;;;;;;25.70;13.15;;;;;;;-4.58;59.85;99962.84;510105;1102;115321;-64
2021/03/20 21:34:06;;;;;;;37.87;18.60;;;;;;;-4.30;59.71;99957.80;510247;1102;114386;-66
2021/03/20 21:44:10;;;;;;;26.37;15.57;;;;;;;-4.07;59.39;99937.34;510260;1101;115454;-64
2021/03/20 21:54:13;;;;;;;27.17;15.20;;;;;;;-3.97;58.64;99918.55;510562;1100;114359;-64
2021/03/20 22:04:16;;;;;;;22.40;12.03;;;;;;;-3.94;59.60;99908.27;510539;1100;115684;-71
2021/03/20 22:14:20;;;;;;;22.23;13.43;;;;;;;-3.99;59.14;99897.13;510617;1100;114374;-64
2021/03/20 22:24:23;;;;;;;22.87;13.60;;;;;;;-4.06;59.20;99890.31;510600;1101;114742;-66
2021/03/20 22:34:26;;;;;;;22.07;12.13;;;;;;;-4.11;59.53;99876.61;510409;1102;114894;-69
2021/03/20 22:44:31;;;;;;;23.60;12.50;;;;;;;-4.11;59.09;99861.22;510283;1101;114620;-66
2021/03/20 22:54:34;;;;;;;19.03;8.73;;;;;;;-4.06;60.43;99845.83;510640;1101;114772;-66
2021/03/20 23:04:38;;;;;;;16.47;9.00;;;;;;;-4.15;60.49;99814.22;510344;1102;114172;-62
2021/03/20 23:14:41;;;;;;;21.60;9.43;;;;;;;-4.11;60.04;99794.53;510490;1101;114123;-63
2021/03/20 23:24:44;;;;;;;19.53;8.87;;;;;;;-4.00;60.95;99789.41;510213;1102;114566;-66
2021/03/20 23:34:48;;;;;;;12.33;7.00;;;;;;;-3.95;60.68;99770.59;510740;1102;114587;-67
2021/03/20 23:44:51;;;;;;;15.40;7.27;;;;;;;-3.83;60.77;99767.13;510809;1102;114120;-64
2021/03/20 23:54:58;;;;;;;11.70;8.20;;;;;;;-3.77;60.56;99745.73;510788;1102;114099;-66
